Irene, South Africa

1:41 AM SAST on August 26, 2016 (GMT +0200)
Irene Farm Village | | Change Station

Elev 4984 ft 25.86 °S, 28.24 °E | Updated 4 seconds ago

Clear
Clear
46.8 °F
Feels Like 47 °F
N
0.0
Wind Variable Wind from SE
Gusts 0.0 mph

Today
High -- | Low -- °F
--% Chance of Precip.
Yesterday
High -- | Low -- °F
Precip. -- in
Pressure 30.39 in
Visibility -9999.0 miles
Clouds
Windchill 47 °F
Dew Point 32 °F
Humidity 57%
Rainfall 0.00 in
Snow Depth Not available.
6:25 AM 5:52 PM
Last Quarter, 41% visible
METAR FAWK 252300Z AUTO 05003KT //// // ////// 16/M02 Q1029
Pressure 30.39 in
Visibility -9999.0 miles
Clouds
Windchill 47 °F
Dew Point 32 °F
Humidity 57%
Rainfall 0.00 in
Snow Depth Not available.
6:25 AM 5:52 PM
Last Quarter, 41% visible
METAR FAWK 252300Z AUTO 05003KT //// // ////// 16/M02 Q1029

10-Day Weather Forecast

No radar image for this location.
×

Almanac

Astronomy

Aug. 26, 2016 Rise Set
Actual Time
Civil Twilight
Nautical Twilight
Astronomical Twilight
Moon
Length of Visible Light
Length of Day
Tomorrow will be .
, % of the Moon is Illuminated

Today's Extremes

Country Highs Country Lows

Community

WunderPhotos

Upload Photos

1,934,967 photos uploaded!

WunderBlog® & News

Nearby

Air Quality

  Air Quality AQ Index Pollutant
Not available.

Snow Depth

Station Depth Elevation

Earthquake Activity

City Distance Mag. Time & Date
Minimum magnitude displayed is 2.5.

Coastal Water Temperatures

Place Temperature

Stations

Nearby Weather Stations

Station Location Temp. Windchill Dew Point Humidity Wind Precip. Elev Updated Type